Grays, Arkansas
Current Conditions -  °F | °C
As of 6:56 AM on Monday 20 Oct 2014 (Local Time) from KM19 Reporting Station
Few Clouds Few Clouds  
Wind Chill: 46°   Ceiling: Unl
Heat Index: 48°   Visibility: 10mi
Dew Point: 47°   Wind: 5mph
Humidity: 97%   Direction: 210°SSW
Pressure: 30.08"   Gusts: NA
Location:  35.2139°N, 91.1509°W
Report Text: KM19 201156Z AUTO 21004KT 10SM FEW110 09/08 A3008 RMK AO2 51003 T00880083 10105 20083 SLP186
Loading
Personal Weather Stations






























Interactive Weather Map
Tropical Storm Tracking
New forecast layout! Learn more

10-Day Weather Forecast

Advertisements
Track Severe Weather on mobile